Camargo, Spain
Current Conditions -  °F | °C
As of 5:00 PM on Thursday 18 Dec 2014 (Local Time) from LEXJ Reporting Station
Scattered Clouds Scattered Clouds  
Wind Chill: 55°   Ceiling: Unl
Heat Index: 55°   Visibility: 6mi
Dew Point: 45°   Wind: 5mph
Humidity: 67%   Direction: 250°WSW
Pressure: 30.42"   Gusts: NA
Location:  43.41°N, 3.88°W
Report Text: LEXJ 181600Z 25004KT 230V290 9999 SCT030 13/07 Q1030
Loading
Personal Weather Stations






























Interactive Weather Map New forecast layout! Learn more

10-Day Weather Forecast

Advertisements
Track Severe Weather on mobile